sensor_id;sensor_type;location;lat;lon;timestamp;temperature;humidity
14053;DHT22;7101;51.600;7.310;2022-07-06T00:01:54;14.60;99.90
14053;DHT22;7101;51.600;7.310;2022-07-06T00:04:21;14.70;99.90
14053;DHT22;7101;51.600;7.310;2022-07-06T00:06:48;14.70;99.90
14053;DHT22;7101;51.600;7.310;2022-07-06T00:09:15;14.60;99.90
14053;DHT22;7101;51.600;7.310;2022-07-06T00:11:42;14.50;99.90
14053;DHT22;7101;51.600;7.310;2022-07-06T00:14:09;14.60;99.90
14053;DHT22;7101;51.600;7.310;2022-07-06T00:16:37;14.50;99.90
14053;DHT22;7101;51.600;7.310;2022-07-06T00:19:04;14.40;99.90
14053;DHT22;7101;51.600;7.310;2022-07-06T00:21:30;14.40;99.90
14053;DHT22;7101;51.600;7.310;2022-07-06T00:23:57;14.40;99.90
14053;DHT22;7101;51.600;7.310;2022-07-06T00:26:24;14.40;99.90
14053;DHT22;7101;51.600;7.310;2022-07-06T00:28:51;14.50;99.90
14053;DHT22;7101;51.600;7.310;2022-07-06T00:31:18;14.60;99.90
14053;DHT22;7101;51.600;7.310;2022-07-06T00:33:46;14.60;99.90
14053;DHT22;7101;51.600;7.310;2022-07-06T00:36:13;14.60;99.90
14053;DHT22;7101;51.600;7.310;2022-07-06T00:38:40;14.70;99.90
14053;DHT22;7101;51.600;7.310;2022-07-06T00:41:07;14.70;99.90
14053;DHT22;7101;51.600;7.310;2022-07-06T00:43:48;14.70;99.90
14053;DHT22;7101;51.600;7.310;2022-07-06T00:46:15;14.70;99.90
14053;DHT22;7101;51.600;7.310;2022-07-06T00:48:42;14.60;99.90
14053;DHT22;7101;51.600;7.310;2022-07-06T00:51:10;14.50;99.90
14053;DHT22;7101;51.600;7.310;2022-07-06T00:53:38;14.30;99.90
14053;DHT22;7101;51.600;7.310;2022-07-06T00:56:06;14.30;99.90
14053;DHT22;7101;51.600;7.310;2022-07-06T00:58:33;14.20;99.90
14053;DHT22;7101;51.600;7.310;2022-07-06T01:01:00;14.20;99.90
14053;DHT22;7101;51.600;7.310;2022-07-06T01:03:27;14.20;99.90
14053;DHT22;7101;51.600;7.310;2022-07-06T01:05:53;14.20;99.90
14053;DHT22;7101;51.600;7.310;2022-07-06T01:08:22;14.30;99.90
14053;DHT22;7101;51.600;7.310;2022-07-06T01:10:49;14.20;99.90
14053;DHT22;7101;51.600;7.310;2022-07-06T01:13:15;14.20;99.90
14053;DHT22;7101;51.600;7.310;2022-07-06T01:15:42;14.10;99.90
14053;DHT22;7101;51.600;7.310;2022-07-06T01:18:09;14.10;99.90
14053;DHT22;7101;51.600;7.310;2022-07-06T01:20:39;14.10;99.90
14053;DHT22;7101;51.600;7.310;2022-07-06T01:23:06;14.10;99.90
14053;DHT22;7101;51.600;7.310;2022-07-06T01:25:33;14.00;99.90
14053;DHT22;7101;51.600;7.310;2022-07-06T01:28:00;14.10;99.90
14053;DHT22;7101;51.600;7.310;2022-07-06T01:30:26;14.00;99.90
14053;DHT22;7101;51.600;7.310;2022-07-06T01:32:53;14.00;99.90
14053;DHT22;7101;51.600;7.310;2022-07-06T01:35:20;13.90;99.90
14053;DHT22;7101;51.600;7.310;2022-07-06T01:37:49;13.90;99.90
14053;DHT22;7101;51.600;7.310;2022-07-06T01:40:16;13.70;99.90
14053;DHT22;7101;51.600;7.310;2022-07-06T01:42:43;13.60;99.90
14053;DHT22;7101;51.600;7.310;2022-07-06T01:45:10;13.50;99.90
14053;DHT22;7101;51.600;7.310;2022-07-06T01:47:37;13.40;99.90
14053;DHT22;7101;51.600;7.310;2022-07-06T01:50:06;13.30;99.90
14053;DHT22;7101;51.600;7.310;2022-07-06T01:52:34;13.30;99.90
14053;DHT22;7101;51.600;7.310;2022-07-06T01:55:03;13.30;99.90
14053;DHT22;7101;51.600;7.310;2022-07-06T01:57:30;13.20;99.90
14053;DHT22;7101;51.600;7.310;2022-07-06T01:59:56;13.10;99.90
14053;DHT22;7101;51.600;7.310;2022-07-06T02:02:23;13.10;99.90
14053;DHT22;7101;51.600;7.310;2022-07-06T02:04:50;13.00;99.90
14053;DHT22;7101;51.600;7.310;2022-07-06T02:07:17;13.00;99.90
14053;DHT22;7101;51.600;7.310;2022-07-06T02:09:43;13.00;99.90
14053;DHT22;7101;51.600;7.310;2022-07-06T02:12:12;12.90;99.90
14053;DHT22;7101;51.600;7.310;2022-07-06T02:14:38;12.80;99.90
14053;DHT22;7101;51.600;7.310;2022-07-06T02:17:05;12.70;99.90
14053;DHT22;7101;51.600;7.310;2022-07-06T02:19:32;12.70;99.90
14053;DHT22;7101;51.600;7.310;2022-07-06T02:21:59;12.60;99.90
14053;DHT22;7101;51.600;7.310;2022-07-06T02:24:25;12.60;99.90
14053;DHT22;7101;51.600;7.310;2022-07-06T02:26:52;12.60;99.90
14053;DHT22;7101;51.600;7.310;2022-07-06T02:29:20;12.60;99.90
14053;DHT22;7101;51.600;7.310;2022-07-06T02:31:47;12.50;99.90
14053;DHT22;7101;51.600;7.310;2022-07-06T02:34:14;12.60;99.90
14053;DHT22;7101;51.600;7.310;2022-07-06T02:36:41;12.50;99.90
14053;DHT22;7101;51.600;7.310;2022-07-06T02:39:07;12.50;99.90
14053;DHT22;7101;51.600;7.310;2022-07-06T02:41:34;12.50;99.90
14053;DHT22;7101;51.600;7.310;2022-07-06T02:44:01;12.40;99.90
14053;DHT22;7101;51.600;7.310;2022-07-06T02:46:30;12.30;99.90
14053;DHT22;7101;51.600;7.310;2022-07-06T02:48:57;12.30;99.90
14053;DHT22;7101;51.600;7.310;2022-07-06T02:51:23;12.20;99.90
14053;DHT22;7101;51.600;7.310;2022-07-06T02:53:50;12.10;99.90
14053;DHT22;7101;51.600;7.310;2022-07-06T02:56:17;12.10;99.90
14053;DHT22;7101;51.600;7.310;2022-07-06T02:58:44;12.10;99.90
14053;DHT22;7101;51.600;7.310;2022-07-06T03:01:10;12.00;99.90
14053;DHT22;7101;51.600;7.310;2022-07-06T03:03:39;12.00;99.90
14053;DHT22;7101;51.600;7.310;2022-07-06T03:06:06;12.00;99.90
14053;DHT22;7101;51.600;7.310;2022-07-06T03:08:33;12.10;99.90
14053;DHT22;7101;51.600;7.310;2022-07-06T03:11:00;12.10;99.90
14053;DHT22;7101;51.600;7.310;2022-07-06T03:13:27;12.20;99.90
14053;DHT22;7101;51.600;7.310;2022-07-06T03:15:54;12.20;99.90
14053;DHT22;7101;51.600;7.310;2022-07-06T03:18:21;12.20;99.90
14053;DHT22;7101;51.600;7.310;2022-07-06T03:20:49;12.40;99.90
14053;DHT22;7101;51.600;7.310;2022-07-06T03:23:15;12.40;99.90
14053;DHT22;7101;51.600;7.310;2022-07-06T03:25:42;12.60;99.90
14053;DHT22;7101;51.600;7.310;2022-07-06T03:28:09;12.60;99.90
14053;DHT22;7101;51.600;7.310;2022-07-06T03:30:36;12.70;99.90
14053;DHT22;7101;51.600;7.310;2022-07-06T03:33:02;12.80;99.90
14053;DHT22;7101;51.600;7.310;2022-07-06T03:35:29;12.90;99.90
14053;DHT22;7101;51.600;7.310;2022-07-06T03:37:58;12.90;99.90
14053;DHT22;7101;51.600;7.310;2022-07-06T03:40:24;13.00;99.90
14053;DHT22;7101;51.600;7.310;2022-07-06T03:42:51;13.10;99.90
14053;DHT22;7101;51.600;7.310;2022-07-06T03:45:18;13.20;99.90
14053;DHT22;7101;51.600;7.310;2022-07-06T03:47:45;13.20;99.90
14053;DHT22;7101;51.600;7.310;2022-07-06T03:50:11;13.40;99.90
14053;DHT22;7101;51.600;7.310;2022-07-06T03:52:38;13.50;99.90
14053;DHT22;7101;51.600;7.310;2022-07-06T03:55:10;13.70;99.90
14053;DHT22;7101;51.600;7.310;2022-07-06T03:57:37;13.80;99.90
14053;DHT22;7101;51.600;7.310;2022-07-06T04:00:06;13.80;99.90
14053;DHT22;7101;51.600;7.310;2022-07-06T04:02:33;13.90;99.90
14053;DHT22;7101;51.600;7.310;2022-07-06T04:05:00;14.00;99.90
14053;DHT22;7101;51.600;7.310;2022-07-06T04:07:27;14.30;99.90
14053;DHT22;7101;51.600;7.310;2022-07-06T04:09:53;14.50;99.90
14053;DHT22;7101;51.600;7.310;2022-07-06T04:12:21;14.90;99.90
14053;DHT22;7101;51.600;7.310;2022-07-06T04:14:48;16.00;99.90
14053;DHT22;7101;51.600;7.310;2022-07-06T04:17:15;17.20;99.90
14053;DHT22;7101;51.600;7.310;2022-07-06T04:19:59;17.90;99.90
14053;DHT22;7101;51.600;7.310;2022-07-06T04:22:26;18.40;99.90
14053;DHT22;7101;51.600;7.310;2022-07-06T04:24:53;18.30;99.90
14053;DHT22;7101;51.600;7.310;2022-07-06T04:27:21;18.70;99.90
14053;DHT22;7101;51.600;7.310;2022-07-06T04:29:48;19.20;99.90
14053;DHT22;7101;51.600;7.310;2022-07-06T04:32:15;19.50;99.90
14053;DHT22;7101;51.600;7.310;2022-07-06T04:34:41;19.50;99.90
14053;DHT22;7101;51.600;7.310;2022-07-06T04:37:08;19.40;99.90
14053;DHT22;7101;51.600;7.310;2022-07-06T04:39:35;19.20;99.90
14053;DHT22;7101;51.600;7.310;2022-07-06T04:42:02;19.60;99.90
14053;DHT22;7101;51.600;7.310;2022-07-06T04:44:30;20.20;99.90
14053;DHT22;7101;51.600;7.310;2022-07-06T04:46:57;20.70;99.90
14053;DHT22;7101;51.600;7.310;2022-07-06T04:49:23;21.00;99.90
14053;DHT22;7101;51.600;7.310;2022-07-06T04:51:50;21.50;99.90
14053;DHT22;7101;51.600;7.310;2022-07-06T04:54:17;21.80;99.90
14053;DHT22;7101;51.600;7.310;2022-07-06T04:56:44;21.40;99.90
14053;DHT22;7101;51.600;7.310;2022-07-06T04:59:12;21.20;99.90
14053;DHT22;7101;51.600;7.310;2022-07-06T05:01:40;21.30;99.90
14053;DHT22;7101;51.600;7.310;2022-07-06T05:04:07;21.30;99.90
14053;DHT22;7101;51.600;7.310;2022-07-06T05:06:34;21.20;99.90
14053;DHT22;7101;51.600;7.310;2022-07-06T05:09:01;21.50;99.90
14053;DHT22;7101;51.600;7.310;2022-07-06T05:11:28;21.90;99.90
14053;DHT22;7101;51.600;7.310;2022-07-06T05:13:55;21.60;99.90
14053;DHT22;7101;51.600;7.310;2022-07-06T05:16:22;22.70;99.90
14053;DHT22;7101;51.600;7.310;2022-07-06T05:18:50;23.60;99.10
14053;DHT22;7101;51.600;7.310;2022-07-06T05:21:17;24.60;92.30
14053;DHT22;7101;51.600;7.310;2022-07-06T05:23:43;24.40;91.20
14053;DHT22;7101;51.600;7.310;2022-07-06T05:26:10;23.80;91.00
14053;DHT22;7101;51.600;7.310;2022-07-06T05:28:37;24.00;92.20
14053;DHT22;7101;51.600;7.310;2022-07-06T05:31:04;23.10;91.80
14053;DHT22;7101;51.600;7.310;2022-07-06T05:33:31;22.40;94.10
14053;DHT22;7101;51.600;7.310;2022-07-06T05:35:59;23.00;95.00
14053;DHT22;7101;51.600;7.310;2022-07-06T05:38:26;23.50;91.70
14053;DHT22;7101;51.600;7.310;2022-07-06T05:40:53;23.10;93.50
14053;DHT22;7101;51.600;7.310;2022-07-06T05:43:20;22.90;94.60
14053;DHT22;7101;51.600;7.310;2022-07-06T05:46:09;22.40;96.00
14053;DHT22;7101;51.600;7.310;2022-07-06T05:48:36;20.40;99.90
14053;DHT22;7101;51.600;7.310;2022-07-06T05:51:21;20.00;99.90
14053;DHT22;7101;51.600;7.310;2022-07-06T05:53:48;19.90;99.90
14053;DHT22;7101;51.600;7.310;2022-07-06T05:56:15;19.50;99.90
14053;DHT22;7101;51.600;7.310;2022-07-06T05:58:42;19.30;99.90
14053;DHT22;7101;51.600;7.310;2022-07-06T06:01:09;19.10;99.90
14053;DHT22;7101;51.600;7.310;2022-07-06T06:03:36;19.50;99.90
14053;DHT22;7101;51.600;7.310;2022-07-06T06:06:03;19.80;99.90
14053;DHT22;7101;51.600;7.310;2022-07-06T06:08:31;19.70;99.90
14053;DHT22;7101;51.600;7.310;2022-07-06T06:10:58;19.80;99.90
14053;DHT22;7101;51.600;7.310;2022-07-06T06:13:25;20.00;99.90
14053;DHT22;7101;51.600;7.310;2022-07-06T06:15:52;20.10;99.90
14053;DHT22;7101;51.600;7.310;2022-07-06T06:18:19;19.90;99.90
14053;DHT22;7101;51.600;7.310;2022-07-06T06:20:45;19.40;99.90
14053;DHT22;7101;51.600;7.310;2022-07-06T06:23:12;19.10;99.90
14053;DHT22;7101;51.600;7.310;2022-07-06T06:25:41;18.90;99.90
14053;DHT22;7101;51.600;7.310;2022-07-06T06:28:09;18.70;99.90
14053;DHT22;7101;51.600;7.310;2022-07-06T06:30:37;18.00;99.90
14053;DHT22;7101;51.600;7.310;2022-07-06T06:33:09;17.90;99.90
14053;DHT22;7101;51.600;7.310;2022-07-06T06:35:37;17.70;99.90
14053;DHT22;7101;51.600;7.310;2022-07-06T06:38:04;18.10;99.90
14053;DHT22;7101;51.600;7.310;2022-07-06T06:40:30;17.90;99.90
14053;DHT22;7101;51.600;7.310;2022-07-06T06:42:59;17.80;99.90
14053;DHT22;7101;51.600;7.310;2022-07-06T06:45:26;17.60;99.90
14053;DHT22;7101;51.600;7.310;2022-07-06T06:47:52;16.80;99.90
14053;DHT22;7101;51.600;7.310;2022-07-06T06:50:19;16.90;99.90
14053;DHT22;7101;51.600;7.310;2022-07-06T06:52:46;17.20;99.90
14053;DHT22;7101;51.600;7.310;2022-07-06T06:55:13;17.60;99.90
14053;DHT22;7101;51.600;7.310;2022-07-06T06:57:40;17.90;99.90
14053;DHT22;7101;51.600;7.310;2022-07-06T07:00:09;18.00;99.90
14053;DHT22;7101;51.600;7.310;2022-07-06T07:02:36;18.00;99.90
14053;DHT22;7101;51.600;7.310;2022-07-06T07:05:05;18.00;99.90
14053;DHT22;7101;51.600;7.310;2022-07-06T07:07:32;17.90;99.90
14053;DHT22;7101;51.600;7.310;2022-07-06T07:09:59;18.20;99.90
14053;DHT22;7101;51.600;7.310;2022-07-06T07:12:26;18.20;99.90
14053;DHT22;7101;51.600;7.310;2022-07-06T07:14:53;18.80;99.90
14053;DHT22;7101;51.600;7.310;2022-07-06T07:17:21;19.20;99.90
14053;DHT22;7101;51.600;7.310;2022-07-06T07:19:47;19.30;99.90
14053;DHT22;7101;51.600;7.310;2022-07-06T07:22:14;19.60;99.90
14053;DHT22;7101;51.600;7.310;2022-07-06T07:24:41;20.30;99.90
14053;DHT22;7101;51.600;7.310;2022-07-06T07:27:08;20.30;99.90
14053;DHT22;7101;51.600;7.310;2022-07-06T07:29:35;21.40;99.90
14053;DHT22;7101;51.600;7.310;2022-07-06T07:32:02;22.00;99.90
14053;DHT22;7101;51.600;7.310;2022-07-06T07:34:30;22.10;99.90
14053;DHT22;7101;51.600;7.310;2022-07-06T07:36:57;22.00;99.90
14053;DHT22;7101;51.600;7.310;2022-07-06T07:39:24;21.40;99.90
14053;DHT22;7101;51.600;7.310;2022-07-06T07:41:51;21.80;99.90
14053;DHT22;7101;51.600;7.310;2022-07-06T07:44:18;22.20;99.90
14053;DHT22;7101;51.600;7.310;2022-07-06T07:46:44;22.70;99.20
14053;DHT22;7101;51.600;7.310;2022-07-06T07:49:11;22.70;99.20
14053;DHT22;7101;51.600;7.310;2022-07-06T07:51:39;22.60;99.90
14053;DHT22;7101;51.600;7.310;2022-07-06T07:54:07;22.10;98.00
14053;DHT22;7101;51.600;7.310;2022-07-06T07:56:33;21.90;99.90
14053;DHT22;7101;51.600;7.310;2022-07-06T07:59:00;21.80;99.90
14053;DHT22;7101;51.600;7.310;2022-07-06T08:01:27;21.80;98.10
14053;DHT22;7101;51.600;7.310;2022-07-06T08:03:54;21.70;98.00
14053;DHT22;7101;51.600;7.310;2022-07-06T08:06:20;21.20;99.90
14053;DHT22;7101;51.600;7.310;2022-07-06T08:08:49;20.70;99.90
14053;DHT22;7101;51.600;7.310;2022-07-06T08:11:15;20.00;99.90
14053;DHT22;7101;51.600;7.310;2022-07-06T08:13:42;19.90;99.90
14053;DHT22;7101;51.600;7.310;2022-07-06T08:16:09;19.90;99.90
14053;DHT22;7101;51.600;7.310;2022-07-06T08:18:36;19.30;99.90
14053;DHT22;7101;51.600;7.310;2022-07-06T08:21:04;19.00;99.90
14053;DHT22;7101;51.600;7.310;2022-07-06T08:23:31;18.70;99.90
14053;DHT22;7101;51.600;7.310;2022-07-06T08:26:01;19.20;99.90
14053;DHT22;7101;51.600;7.310;2022-07-06T08:28:28;19.50;99.90
14053;DHT22;7101;51.600;7.310;2022-07-06T08:30:56;19.70;99.90
14053;DHT22;7101;51.600;7.310;2022-07-06T08:33:23;20.10;99.90
14053;DHT22;7101;51.600;7.310;2022-07-06T08:35:50;20.00;99.90
14053;DHT22;7101;51.600;7.310;2022-07-06T08:38:17;19.70;99.90
14053;DHT22;7101;51.600;7.310;2022-07-06T08:40:47;19.50;99.90
14053;DHT22;7101;51.600;7.310;2022-07-06T08:43:15;19.80;99.90
14053;DHT22;7101;51.600;7.310;2022-07-06T08:45:43;20.10;99.90
14053;DHT22;7101;51.600;7.310;2022-07-06T08:48:12;20.10;99.90
14053;DHT22;7101;51.600;7.310;2022-07-06T08:50:39;20.10;99.90
14053;DHT22;7101;51.600;7.310;2022-07-06T08:53:06;20.10;99.90
14053;DHT22;7101;51.600;7.310;2022-07-06T08:55:33;20.40;99.90
14053;DHT22;7101;51.600;7.310;2022-07-06T08:58:02;19.90;99.90
14053;DHT22;7101;51.600;7.310;2022-07-06T09:00:32;20.00;99.90
14053;DHT22;7101;51.600;7.310;2022-07-06T09:02:59;20.10;99.90
14053;DHT22;7101;51.600;7.310;2022-07-06T09:05:28;20.40;99.90
14053;DHT22;7101;51.600;7.310;2022-07-06T09:07:55;21.20;99.90
14053;DHT22;7101;51.600;7.310;2022-07-06T09:10:23;21.80;99.90
14053;DHT22;7101;51.600;7.310;2022-07-06T09:12:50;22.30;97.80
14053;DHT22;7101;51.600;7.310;2022-07-06T09:15:17;22.70;99.40
14053;DHT22;7101;51.600;7.310;2022-07-06T09:17:45;22.60;92.50
14053;DHT22;7101;51.600;7.310;2022-07-06T09:20:13;22.50;93.40
14053;DHT22;7101;51.600;7.310;2022-07-06T09:22:40;22.40;91.50
14053;DHT22;7101;51.600;7.310;2022-07-06T09:25:08;23.10;87.20
14053;DHT22;7101;51.600;7.310;2022-07-06T09:27:39;22.80;91.90
14053;DHT22;7101;51.600;7.310;2022-07-06T09:30:07;22.90;88.60
14053;DHT22;7101;51.600;7.310;2022-07-06T09:32:39;22.40;84.30
14053;DHT22;7101;51.600;7.310;2022-07-06T09:35:07;21.50;86.60
14053;DHT22;7101;51.600;7.310;2022-07-06T09:37:34;21.30;87.30
14053;DHT22;7101;51.600;7.310;2022-07-06T09:40:03;21.80;90.30
14053;DHT22;7101;51.600;7.310;2022-07-06T09:42:41;22.40;86.00
14053;DHT22;7101;51.600;7.310;2022-07-06T09:45:09;22.60;83.70
14053;DHT22;7101;51.600;7.310;2022-07-06T09:47:36;22.50;86.20
14053;DHT22;7101;51.600;7.310;2022-07-06T09:50:06;22.70;82.80
14053;DHT22;7101;51.600;7.310;2022-07-06T09:52:34;22.30;87.00
14053;DHT22;7101;51.600;7.310;2022-07-06T09:55:01;23.00;89.20
14053;DHT22;7101;51.600;7.310;2022-07-06T09:57:32;23.60;77.40
14053;DHT22;7101;51.600;7.310;2022-07-06T09:59:58;24.10;77.30
14053;DHT22;7101;51.600;7.310;2022-07-06T10:02:26;24.90;77.40
14053;DHT22;7101;51.600;7.310;2022-07-06T10:04:55;24.50;71.40
14053;DHT22;7101;51.600;7.310;2022-07-06T10:07:24;24.80;77.30
14053;DHT22;7101;51.600;7.310;2022-07-06T10:09:51;24.90;69.00
14053;DHT22;7101;51.600;7.310;2022-07-06T10:12:19;24.60;73.20
14053;DHT22;7101;51.600;7.310;2022-07-06T10:14:46;23.80;72.10
14053;DHT22;7101;51.600;7.310;2022-07-06T10:17:13;23.30;77.40
14053;DHT22;7101;51.600;7.310;2022-07-06T10:19:41;23.30;75.30
14053;DHT22;7101;51.600;7.310;2022-07-06T10:22:08;22.80;75.80
14053;DHT22;7101;51.600;7.310;2022-07-06T10:24:36;23.00;77.20
14053;DHT22;7101;51.600;7.310;2022-07-06T10:27:10;22.90;76.10
14053;DHT22;7101;51.600;7.310;2022-07-06T10:29:37;23.00;80.20
14053;DHT22;7101;51.600;7.310;2022-07-06T10:32:04;23.30;78.30
14053;DHT22;7101;51.600;7.310;2022-07-06T10:34:32;24.00;78.90
14053;DHT22;7101;51.600;7.310;2022-07-06T10:37:00;24.80;75.80
14053;DHT22;7101;51.600;7.310;2022-07-06T10:39:35;24.60;76.20
14053;DHT22;7101;51.600;7.310;2022-07-06T10:42:39;23.90;74.30
14053;DHT22;7101;51.600;7.310;2022-07-06T10:45:07;24.30;70.60
14053;DHT22;7101;51.600;7.310;2022-07-06T10:47:34;24.30;72.00
14053;DHT22;7101;51.600;7.310;2022-07-06T10:50:02;23.80;75.20
14053;DHT22;7101;51.600;7.310;2022-07-06T10:52:53;23.30;71.80
14053;DHT22;7101;51.600;7.310;2022-07-06T10:55:32;23.00;74.70
14053;DHT22;7101;51.600;7.310;2022-07-06T10:58:00;22.80;74.30
14053;DHT22;7101;51.600;7.310;2022-07-06T11:00:47;22.50;78.00
14053;DHT22;7101;51.600;7.310;2022-07-06T11:03:47;22.40;75.20
14053;DHT22;7101;51.600;7.310;2022-07-06T11:06:16;22.20;76.90
14053;DHT22;7101;51.600;7.310;2022-07-06T11:08:49;22.00;78.50
14053;DHT22;7101;51.600;7.310;2022-07-06T11:11:18;22.10;79.40
14053;DHT22;7101;51.600;7.310;2022-07-06T11:14:04;22.10;77.80
14053;DHT22;7101;51.600;7.310;2022-07-06T11:16:32;22.10;81.90
14053;DHT22;7101;51.600;7.310;2022-07-06T11:19:07;22.50;79.10
14053;DHT22;7101;51.600;7.310;2022-07-06T11:21:37;22.50;78.60
14053;DHT22;7101;51.600;7.310;2022-07-06T11:24:05;22.90;77.90
14053;DHT22;7101;51.600;7.310;2022-07-06T11:26:34;23.00;78.80
14053;DHT22;7101;51.600;7.310;2022-07-06T11:29:03;23.00;76.10
14053;DHT22;7101;51.600;7.310;2022-07-06T11:31:33;22.90;71.80
14053;DHT22;7101;51.600;7.310;2022-07-06T11:34:00;22.70;75.90
14053;DHT22;7101;51.600;7.310;2022-07-06T11:36:27;22.10;76.90
14053;DHT22;7101;51.600;7.310;2022-07-06T11:38:54;22.00;79.60
14053;DHT22;7101;51.600;7.310;2022-07-06T11:41:21;22.50;79.00
14053;DHT22;7101;51.600;7.310;2022-07-06T11:43:49;22.90;80.10
14053;DHT22;7101;51.600;7.310;2022-07-06T11:46:25;23.40;78.30
14053;DHT22;7101;51.600;7.310;2022-07-06T11:48:54;23.10;73.70
14053;DHT22;7101;51.600;7.310;2022-07-06T11:51:22;23.60;73.60
14053;DHT22;7101;51.600;7.310;2022-07-06T11:53:50;23.60;72.10
14053;DHT22;7101;51.600;7.310;2022-07-06T11:56:18;22.90;74.50
14053;DHT22;7101;51.600;7.310;2022-07-06T11:58:50;23.40;73.70
14053;DHT22;7101;51.600;7.310;2022-07-06T12:01:17;23.40;75.80
14053;DHT22;7101;51.600;7.310;2022-07-06T12:03:45;23.90;71.00
14053;DHT22;7101;51.600;7.310;2022-07-06T12:06:20;23.60;66.60
14053;DHT22;7101;51.600;7.310;2022-07-06T12:08:48;23.10;74.40
14053;DHT22;7101;51.600;7.310;2022-07-06T12:11:23;22.50;73.40
14053;DHT22;7101;51.600;7.310;2022-07-06T12:13:53;22.70;75.30
14053;DHT22;7101;51.600;7.310;2022-07-06T12:16:21;22.70;72.40
14053;DHT22;7101;51.600;7.310;2022-07-06T12:18:54;23.00;77.00
14053;DHT22;7101;51.600;7.310;2022-07-06T12:21:21;23.50;71.80
14053;DHT22;7101;51.600;7.310;2022-07-06T12:23:49;24.00;76.20
14053;DHT22;7101;51.600;7.310;2022-07-06T12:26:18;24.30;71.60
14053;DHT22;7101;51.600;7.310;2022-07-06T12:28:46;24.30;70.90
14053;DHT22;7101;51.600;7.310;2022-07-06T12:31:32;24.30;71.40
14053;DHT22;7101;51.600;7.310;2022-07-06T12:33:59;24.90;69.00
14053;DHT22;7101;51.600;7.310;2022-07-06T12:36:26;24.70;66.80
14053;DHT22;7101;51.600;7.310;2022-07-06T12:38:53;24.10;67.30
14053;DHT22;7101;51.600;7.310;2022-07-06T12:41:28;24.40;68.30
14053;DHT22;7101;51.600;7.310;2022-07-06T12:44:03;24.10;66.40
14053;DHT22;7101;51.600;7.310;2022-07-06T12:46:31;23.80;65.60
14053;DHT22;7101;51.600;7.310;2022-07-06T12:49:01;23.40;66.00
14053;DHT22;7101;51.600;7.310;2022-07-06T12:51:28;23.40;68.30
14053;DHT22;7101;51.600;7.310;2022-07-06T12:54:13;23.70;67.30
14053;DHT22;7101;51.600;7.310;2022-07-06T12:57:03;24.40;67.20
14053;DHT22;7101;51.600;7.310;2022-07-06T12:59:32;23.90;67.10
14053;DHT22;7101;51.600;7.310;2022-07-06T13:01:59;24.00;68.00
14053;DHT22;7101;51.600;7.310;2022-07-06T13:04:29;23.30;65.20
14053;DHT22;7101;51.600;7.310;2022-07-06T13:06:57;23.20;66.90
14053;DHT22;7101;51.600;7.310;2022-07-06T13:09:25;23.30;69.00
14053;DHT22;7101;51.600;7.310;2022-07-06T13:11:51;23.00;68.90
14053;DHT22;7101;51.600;7.310;2022-07-06T13:14:19;23.30;71.10
14053;DHT22;7101;51.600;7.310;2022-07-06T13:16:47;23.60;64.40
14053;DHT22;7101;51.600;7.310;2022-07-06T13:19:15;23.20;65.40
14053;DHT22;7101;51.600;7.310;2022-07-06T13:21:43;23.00;67.90
14053;DHT22;7101;51.600;7.310;2022-07-06T13:24:11;23.70;67.40
14053;DHT22;7101;51.600;7.310;2022-07-06T13:26:38;23.70;67.60
14053;DHT22;7101;51.600;7.310;2022-07-06T13:29:05;23.70;67.20
14053;DHT22;7101;51.600;7.310;2022-07-06T13:31:32;23.90;65.90
14053;DHT22;7101;51.600;7.310;2022-07-06T13:33:59;23.80;66.30
14053;DHT22;7101;51.600;7.310;2022-07-06T13:36:26;23.60;69.60
14053;DHT22;7101;51.600;7.310;2022-07-06T13:38:54;23.90;68.10
14053;DHT22;7101;51.600;7.310;2022-07-06T13:41:21;24.40;70.00
14053;DHT22;7101;51.600;7.310;2022-07-06T13:43:47;24.80;66.70
14053;DHT22;7101;51.600;7.310;2022-07-06T13:46:14;24.50;65.40
14053;DHT22;7101;51.600;7.310;2022-07-06T13:48:42;24.10;66.40
14053;DHT22;7101;51.600;7.310;2022-07-06T13:51:09;24.00;67.40
14053;DHT22;7101;51.600;7.310;2022-07-06T13:53:36;23.60;67.30
14053;DHT22;7101;51.600;7.310;2022-07-06T13:56:05;23.40;68.00
14053;DHT22;7101;51.600;7.310;2022-07-06T13:58:33;23.20;68.10
14053;DHT22;7101;51.600;7.310;2022-07-06T14:01:00;23.20;66.50
14053;DHT22;7101;51.600;7.310;2022-07-06T14:03:27;23.10;68.50
14053;DHT22;7101;51.600;7.310;2022-07-06T14:05:56;23.00;66.90
14053;DHT22;7101;51.600;7.310;2022-07-06T14:08:23;23.00;68.80
14053;DHT22;7101;51.600;7.310;2022-07-06T14:10:50;23.00;67.80
14053;DHT22;7101;51.600;7.310;2022-07-06T14:13:18;22.90;70.00
14053;DHT22;7101;51.600;7.310;2022-07-06T14:15:45;23.10;69.00
14053;DHT22;7101;51.600;7.310;2022-07-06T14:18:12;22.80;68.90
14053;DHT22;7101;51.600;7.310;2022-07-06T14:20:40;22.90;69.00
14053;DHT22;7101;51.600;7.310;2022-07-06T14:23:07;23.10;67.90
14053;DHT22;7101;51.600;7.310;2022-07-06T14:25:34;23.30;71.00
14053;DHT22;7101;51.600;7.310;2022-07-06T14:28:00;24.10;70.00
14053;DHT22;7101;51.600;7.310;2022-07-06T14:30:29;24.40;67.10
14053;DHT22;7101;51.600;7.310;2022-07-06T14:32:56;24.80;64.70
14053;DHT22;7101;51.600;7.310;2022-07-06T14:35:23;24.90;63.30
14053;DHT22;7101;51.600;7.310;2022-07-06T14:37:51;24.50;61.90
14053;DHT22;7101;51.600;7.310;2022-07-06T14:40:18;24.20;66.70
14053;DHT22;7101;51.600;7.310;2022-07-06T14:42:45;24.20;65.00
14053;DHT22;7101;51.600;7.310;2022-07-06T14:45:12;24.20;64.90
14053;DHT22;7101;51.600;7.310;2022-07-06T14:47:40;23.50;66.10
14053;DHT22;7101;51.600;7.310;2022-07-06T14:50:07;23.60;66.10
14053;DHT22;7101;51.600;7.310;2022-07-06T14:52:34;23.80;65.10
14053;DHT22;7101;51.600;7.310;2022-07-06T14:55:01;23.40;66.00
14053;DHT22;7101;51.600;7.310;2022-07-06T14:57:28;23.50;68.10
14053;DHT22;7101;51.600;7.310;2022-07-06T14:59:55;23.50;67.20
14053;DHT22;7101;51.600;7.310;2022-07-06T15:02:21;23.30;65.90
14053;DHT22;7101;51.600;7.310;2022-07-06T15:04:50;22.90;68.60
14053;DHT22;7101;51.600;7.310;2022-07-06T15:07:16;23.10;69.70
14053;DHT22;7101;51.600;7.310;2022-07-06T15:09:43;23.10;68.40
14053;DHT22;7101;51.600;7.310;2022-07-06T15:12:10;23.10;69.30
14053;DHT22;7101;51.600;7.310;2022-07-06T15:14:37;23.00;69.50
14053;DHT22;7101;51.600;7.310;2022-07-06T15:17:04;23.50;69.80
14053;DHT22;7101;51.600;7.310;2022-07-06T15:19:31;23.50;65.70
14053;DHT22;7101;51.600;7.310;2022-07-06T15:21:59;23.70;67.30
14053;DHT22;7101;51.600;7.310;2022-07-06T15:24:26;23.80;65.00
14053;DHT22;7101;51.600;7.310;2022-07-06T15:26:53;23.90;63.40
14053;DHT22;7101;51.600;7.310;2022-07-06T15:29:20;23.90;63.20
14053;DHT22;7101;51.600;7.310;2022-07-06T15:31:47;24.40;68.10
14053;DHT22;7101;51.600;7.310;2022-07-06T15:34:14;24.80;64.20
14053;DHT22;7101;51.600;7.310;2022-07-06T15:36:41;25.00;63.30
14053;DHT22;7101;51.600;7.310;2022-07-06T15:39:09;24.90;63.80
14053;DHT22;7101;51.600;7.310;2022-07-06T15:41:35;25.00;60.70
14053;DHT22;7101;51.600;7.310;2022-07-06T15:44:03;24.70;63.70
14053;DHT22;7101;51.600;7.310;2022-07-06T15:46:30;24.30;62.60
14053;DHT22;7101;51.600;7.310;2022-07-06T15:48:57;24.20;64.90
14053;DHT22;7101;51.600;7.310;2022-07-06T15:51:23;23.70;63.10